Time;durP1;ratioP1;P1;durP2;ratioP2;P2;SDS_P1;SDS_P2;PMS_P1;PMS_P2;Temp;Humidity;BMP_temperature;BMP_pressure;BME280_temperature;BME280_humidity;BME280_pressure;Samples;Min_cycle;Max_cycle;Signal;HPM_P1;HPM_P2
2024/01/10 00:02:19;;;;;;;8.35;3.42;;;;;;;;;;5052100;28;20053;-67
2024/01/10 00:04:46;;;;;;;5.63;4.40;;;;;;;;;;5051574;28;20055;-67
2024/01/10 00:07:12;;;;;;;7.38;3.78;;;;;;;;;;5051576;28;20045;-66
2024/01/10 00:09:38;;;;;;;8.10;3.53;;;;;;;;;;5051439;28;20040;-66
2024/01/10 00:12:05;;;;;;;6.20;3.47;;;;;;;;;;5051739;28;20492;-66
2024/01/10 00:14:32;;;;;;;6.15;3.53;;;;;;;;;;5051383;28;20044;-67
2024/01/10 00:17:00;;;;;;;5.60;3.40;;;;;;;;;;5050712;28;20040;-67
2024/01/10 00:19:26;;;;;;;8.18;4.30;;;;;;;;;;5051266;28;20067;-67
2024/01/10 00:21:52;;;;;;;6.13;3.63;;;;;;;;;;5051323;28;20041;-67
2024/01/10 00:24:19;;;;;;;5.35;3.75;;;;;;;;;;5051418;28;20423;-65
2024/01/10 00:26:45;;;;;;;4.93;3.42;;;;;;;;;;5049864;28;20041;-66
2024/01/10 00:29:12;;;;;;;5.38;3.10;;;;;;;;;;5043296;28;20060;-66
2024/01/10 00:31:38;;;;;;;6.15;3.58;;;;;;;;;;5051626;28;20136;-68
2024/01/10 00:34:06;;;;;;;13.35;4.07;;;;;;;;;;5051294;28;20515;-67
2024/01/10 00:36:32;;;;;;;6.15;3.00;;;;;;;;;;5050546;28;20055;-66
2024/01/10 00:38:59;;;;;;;7.30;3.40;;;;;;;;;;5051139;28;20128;-67
2024/01/10 00:41:25;;;;;;;7.13;3.60;;;;;;;;;;5051122;28;20068;-66
2024/01/10 00:43:52;;;;;;;9.85;4.10;;;;;;;;;;5050965;28;20053;-67
2024/01/10 00:46:18;;;;;;;6.07;3.08;;;;;;;;;;5050676;28;20409;-66
2024/01/10 00:48:44;;;;;;;5.57;3.38;;;;;;;;;;5050957;28;20059;-68
2024/01/10 00:51:12;;;;;;;6.65;3.55;;;;;;;;;;5051300;28;20405;-67
2024/01/10 00:53:39;;;;;;;5.63;3.17;;;;;;;;;;5051209;28;20045;-67
2024/01/10 00:56:06;;;;;;;8.18;3.97;;;;;;;;;;5050754;28;20428;-67
2024/01/10 00:58:32;;;;;;;7.13;3.40;;;;;;;;;;5050407;28;20124;-66
2024/01/10 01:00:59;;;;;;;7.28;4.75;;;;;;;;;;5050979;28;20416;-67
2024/01/10 01:03:25;;;;;;;6.68;3.42;;;;;;;;;;5051113;28;20056;-67
2024/01/10 01:05:51;;;;;;;4.72;3.33;;;;;;;;;;5050421;28;20060;-66
2024/01/10 01:08:19;;;;;;;6.03;3.97;;;;;;;;;;5050827;28;20055;-66
2024/01/10 01:10:45;;;;;;;8.07;4.25;;;;;;;;;;5050738;28;20127;-67
2024/01/10 01:13:12;;;;;;;9.35;4.97;;;;;;;;;;5050569;28;20056;-67
2024/01/10 01:15:38;;;;;;;5.15;3.30;;;;;;;;;;5050885;28;20123;-68
2024/01/10 01:18:05;;;;;;;6.80;3.72;;;;;;;;;;5050284;28;20381;-67
2024/01/10 01:20:32;;;;;;;6.95;3.38;;;;;;;;;;5051292;28;20390;-67
2024/01/10 01:22:58;;;;;;;7.40;3.67;;;;;;;;;;5050732;28;20128;-66
2024/01/10 01:25:26;;;;;;;9.23;3.22;;;;;;;;;;5050642;28;20136;-65
2024/01/10 01:27:52;;;;;;;6.80;3.90;;;;;;;;;;5050626;28;20051;-66
2024/01/10 01:30:21;;;;;;;8.35;3.97;;;;;;;;;;5050794;28;20557;-66
2024/01/10 01:32:47;;;;;;;8.27;3.63;;;;;;;;;;5054597;28;20467;-66
2024/01/10 01:35:14;;;;;;;6.95;4.00;;;;;;;;;;5054513;28;20053;-67
2024/01/10 01:37:41;;;;;;;7.70;3.80;;;;;;;;;;5054069;28;20045;-67
2024/01/10 01:40:08;;;;;;;12.50;4.95;;;;;;;;;;5054650;28;20069;-66
2024/01/10 01:42:36;;;;;;;8.93;3.95;;;;;;;;;;5054668;28;20576;-66
2024/01/10 01:45:02;;;;;;;9.27;4.63;;;;;;;;;;5046288;28;20049;-66
2024/01/10 01:47:29;;;;;;;5.80;3.85;;;;;;;;;;5054178;28;20492;-66
2024/01/10 01:49:55;;;;;;;8.75;3.83;;;;;;;;;;5054211;28;20510;-66
2024/01/10 01:52:22;;;;;;;7.13;3.53;;;;;;;;;;5054616;28;20051;-67
2024/01/10 01:54:49;;;;;;;7.30;5.00;;;;;;;;;;5053673;28;20080;-67
2024/01/10 01:57:15;;;;;;;6.80;3.75;;;;;;;;;;5053919;28;20045;-66
2024/01/10 01:59:43;;;;;;;8.23;4.38;;;;;;;;;;5053860;28;20485;-66
2024/01/10 02:02:10;;;;;;;9.05;4.40;;;;;;;;;;5046221;28;20049;-67
2024/01/10 02:04:37;;;;;;;9.40;4.28;;;;;;;;;;5054105;28;20412;-67
2024/01/10 02:07:03;;;;;;;9.32;4.13;;;;;;;;;;5052900;28;20492;-66
2024/01/10 02:09:30;;;;;;;6.53;3.60;;;;;;;;;;5053697;28;20084;-66
2024/01/10 02:11:56;;;;;;;8.07;4.28;;;;;;;;;;5052327;28;20051;-67
2024/01/10 02:14:23;;;;;;;8.15;4.30;;;;;;;;;;5047953;28;20044;-67
2024/01/10 02:16:51;;;;;;;9.32;4.82;;;;;;;;;;5053192;28;20045;-67
2024/01/10 02:19:21;;;;;;;7.47;4.10;;;;;;;;;;5053626;28;20045;-67
2024/01/10 02:21:47;;;;;;;8.30;4.30;;;;;;;;;;5053242;28;20047;-66
2024/01/10 02:24:14;;;;;;;10.07;4.88;;;;;;;;;;5053492;28;20056;-66
2024/01/10 02:26:41;;;;;;;13.35;3.83;;;;;;;;;;5053071;28;20041;-66
2024/01/10 02:29:08;;;;;;;8.10;3.75;;;;;;;;;;5053049;28;20048;-67
2024/01/10 02:31:34;;;;;;;6.10;4.50;;;;;;;;;;5053565;28;20053;-66
2024/01/10 02:34:00;;;;;;;7.43;4.10;;;;;;;;;;5053365;28;20045;-66
2024/01/10 02:36:27;;;;;;;8.43;4.00;;;;;;;;;;5052665;28;20560;-66
2024/01/10 02:38:53;;;;;;;6.72;4.10;;;;;;;;;;5051868;28;20069;-67
2024/01/10 02:41:20;;;;;;;8.82;4.70;;;;;;;;;;5046563;28;20673;-65
2024/01/10 02:43:48;;;;;;;9.77;5.05;;;;;;;;;;5052786;28;20071;-67
2024/01/10 02:46:15;;;;;;;7.32;4.00;;;;;;;;;;5052975;28;20045;-66
2024/01/10 02:48:41;;;;;;;10.45;4.60;;;;;;;;;;5052913;28;20515;-67
2024/01/10 02:51:07;;;;;;;8.45;4.15;;;;;;;;;;5053106;28;20497;-67
2024/01/10 02:53:34;;;;;;;13.02;4.55;;;;;;;;;;5053515;28;20063;-66
2024/01/10 02:56:00;;;;;;;7.57;5.15;;;;;;;;;;5053095;28;20047;-67
2024/01/10 02:58:28;;;;;;;9.75;4.63;;;;;;;;;;5052558;28;20052;-67
2024/01/10 03:00:57;;;;;;;9.32;4.30;;;;;;;;;;5052821;28;20045;-66
2024/01/10 03:03:23;;;;;;;7.80;4.00;;;;;;;;;;5052761;28;20041;-67
2024/01/10 03:05:49;;;;;;;9.70;4.22;;;;;;;;;;5052940;28;20045;-67
2024/01/10 03:08:16;;;;;;;9.85;4.68;;;;;;;;;;5052766;28;20136;-67
2024/01/10 03:10:42;;;;;;;7.47;4.60;;;;;;;;;;5052714;28;20045;-66
2024/01/10 03:13:09;;;;;;;8.65;4.63;;;;;;;;;;5052857;28;20071;-67
2024/01/10 03:15:35;;;;;;;7.18;4.43;;;;;;;;;;5052518;28;20051;-67
2024/01/10 03:18:03;;;;;;;8.15;4.60;;;;;;;;;;5052092;28;20047;-67
2024/01/10 03:20:29;;;;;;;8.55;4.82;;;;;;;;;;5052899;28;20049;-67
2024/01/10 03:22:56;;;;;;;8.40;4.22;;;;;;;;;;5052374;28;20128;-67
2024/01/10 03:25:22;;;;;;;8.18;4.78;;;;;;;;;;5052521;28;20077;-67
2024/01/10 03:27:48;;;;;;;6.47;4.32;;;;;;;;;;5052122;28;20052;-67
2024/01/10 03:30:17;;;;;;;9.80;4.57;;;;;;;;;;5052502;28;20049;-65
2024/01/10 03:32:44;;;;;;;13.70;4.35;;;;;;;;;;5052359;28;20455;-67
2024/01/10 03:35:12;;;;;;;11.70;4.78;;;;;;;;;;5052112;28;20047;-67
2024/01/10 03:37:38;;;;;;;12.05;6.43;;;;;;;;;;5052114;28;20048;-66
2024/01/10 03:40:05;;;;;;;9.82;4.20;;;;;;;;;;5051805;28;20049;-68
2024/01/10 03:42:31;;;;;;;10.75;5.00;;;;;;;;;;5051328;28;20051;-68
2024/01/10 03:44:58;;;;;;;8.18;4.82;;;;;;;;;;5050813;28;20476;-68
2024/01/10 03:47:24;;;;;;;11.27;5.05;;;;;;;;;;5050928;28;20063;-68
2024/01/10 03:49:50;;;;;;;10.77;4.95;;;;;;;;;;5050710;28;20504;-68
2024/01/10 03:52:19;;;;;;;10.43;4.75;;;;;;;;;;5051216;28;20053;-67
2024/01/10 03:54:45;;;;;;;12.10;4.35;;;;;;;;;;5049549;28;20634;-68
2024/01/10 03:57:11;;;;;;;9.23;5.35;;;;;;;;;;5050530;28;20041;-68
2024/01/10 03:59:38;;;;;;;10.00;4.63;;;;;;;;;;5050583;28;20049;-68
2024/01/10 04:02:04;;;;;;;11.35;4.85;;;;;;;;;;5050585;28;20052;-68
2024/01/10 04:04:31;;;;;;;10.00;4.97;;;;;;;;;;5037070;28;20052;-68
2024/01/10 04:06:57;;;;;;;10.25;4.93;;;;;;;;;;5030892;28;20056;-68
2024/01/10 04:09:25;;;;;;;8.85;4.18;;;;;;;;;;5036963;28;20626;-68
2024/01/10 04:11:51;;;;;;;8.57;4.93;;;;;;;;;;5033667;28;20132;-68
2024/01/10 04:14:17;;;;;;;9.80;5.57;;;;;;;;;;5040099;28;20387;-68
2024/01/10 04:16:44;;;;;;;11.73;5.82;;;;;;;;;;5046363;28;20066;-67
2024/01/10 04:19:10;;;;;;;7.80;4.82;;;;;;;;;;5039742;28;20052;-67
2024/01/10 04:21:37;;;;;;;8.57;5.30;;;;;;;;;;5038739;28;20456;-67
2024/01/10 04:24:04;;;;;;;11.80;5.18;;;;;;;;;;5042479;28;20054;-67
2024/01/10 04:26:32;;;;;;;9.40;5.03;;;;;;;;;;5049502;28;20044;-68
2024/01/10 04:28:58;;;;;;;10.27;5.43;;;;;;;;;;5049788;28;20052;-67
2024/01/10 04:31:24;;;;;;;10.98;5.93;;;;;;;;;;5045159;28;20413;-68
2024/01/10 04:33:51;;;;;;;12.70;5.03;;;;;;;;;;5031610;28;20055;-67
2024/01/10 04:36:17;;;;;;;13.68;6.93;;;;;;;;;;5038543;28;20519;-67
2024/01/10 04:38:44;;;;;;;8.93;5.38;;;;;;;;;;5038817;28;20044;-68
2024/01/10 04:41:10;;;;;;;7.90;4.93;;;;;;;;;;5034728;28;20348;-68
2024/01/10 04:43:38;;;;;;;16.08;6.25;;;;;;;;;;5049630;28;20112;-68
2024/01/10 04:46:04;;;;;;;10.05;5.10;;;;;;;;;;5049359;28;21036;-68
2024/01/10 04:48:31;;;;;;;11.77;5.40;;;;;;;;;;5041562;28;20060;-68
2024/01/10 04:50:57;;;;;;;14.25;6.38;;;;;;;;;;5042604;28;20550;-68
2024/01/10 04:53:23;;;;;;;11.10;5.28;;;;;;;;;;5050470;28;20051;-68
2024/01/10 04:55:50;;;;;;;8.85;4.95;;;;;;;;;;5048905;28;20053;-67
2024/01/10 04:58:16;;;;;;;12.52;5.60;;;;;;;;;;5049568;28;20053;-67
2024/01/10 05:00:44;;;;;;;17.70;5.65;;;;;;;;;;5050355;28;20047;-67
2024/01/10 05:03:10;;;;;;;13.75;6.43;;;;;;;;;;5042488;28;20045;-67
2024/01/10 05:05:37;;;;;;;13.65;5.70;;;;;;;;;;5051373;28;20055;-68
2024/01/10 05:08:03;;;;;;;14.27;5.78;;;;;;;;;;5053547;28;20087;-68
2024/01/10 05:10:30;;;;;;;10.13;5.60;;;;;;;;;;5054310;28;20055;-69
2024/01/10 05:12:56;;;;;;;15.10;6.03;;;;;;;;;;5054647;28;20398;-68
2024/01/10 05:15:22;;;;;;;11.85;5.60;;;;;;;;;;5040872;28;20048;-68
2024/01/10 05:17:50;;;;;;;11.57;5.45;;;;;;;;;;5050254;28;20728;-68
2024/01/10 05:20:17;;;;;;;13.73;6.28;;;;;;;;;;5047336;28;20394;-67
2024/01/10 05:22:43;;;;;;;11.43;6.32;;;;;;;;;;5053898;28;20511;-68
2024/01/10 05:25:09;;;;;;;12.95;5.78;;;;;;;;;;5045231;28;20518;-68
2024/01/10 05:27:36;;;;;;;13.43;6.45;;;;;;;;;;5045640;28;20044;-68
2024/01/10 05:30:02;;;;;;;14.30;6.28;;;;;;;;;;5043410;28;20148;-67
2024/01/10 05:32:29;;;;;;;12.35;5.75;;;;;;;;;;5040633;28;20049;-67
2024/01/10 05:34:56;;;;;;;15.13;6.45;;;;;;;;;;5052595;28;20055;-67
2024/01/10 05:37:23;;;;;;;13.13;6.72;;;;;;;;;;5053329;28;20060;-67
2024/01/10 05:39:49;;;;;;;20.13;7.88;;;;;;;;;;5053227;28;20055;-67
2024/01/10 05:42:16;;;;;;;20.67;6.93;;;;;;;;;;5049681;28;20073;-68
2024/01/10 05:44:42;;;;;;;13.70;6.20;;;;;;;;;;5042473;28;20045;-68
2024/01/10 05:47:09;;;;;;;13.10;6.13;;;;;;;;;;5036651;28;20047;-68
2024/01/10 05:49:35;;;;;;;15.85;6.90;;;;;;;;;;5045511;28;20040;-67
2024/01/10 05:52:03;;;;;;;12.93;6.63;;;;;;;;;;5043176;28;20048;-67
2024/01/10 05:54:29;;;;;;;14.75;6.63;;;;;;;;;;5034477;28;20511;-67
2024/01/10 05:56:56;;;;;;;15.45;7.35;;;;;;;;;;5042872;28;20041;-67
2024/01/10 05:59:22;;;;;;;14.43;7.03;;;;;;;;;;5045251;28;20053;-67
2024/01/10 06:01:49;;;;;;;19.50;7.53;;;;;;;;;;5036805;28;20051;-68
2024/01/10 06:04:15;;;;;;;15.55;7.18;;;;;;;;;;5034197;28;20052;-68
2024/01/10 06:06:42;;;;;;;20.70;10.05;;;;;;;;;;5048455;28;20041;-68
2024/01/10 06:09:11;;;;;;;18.42;8.90;;;;;;;;;;5049747;28;20073;-68
2024/01/10 06:11:41;;;;;;;15.05;7.15;;;;;;;;;;5049167;28;20051;-67
2024/01/10 06:14:07;;;;;;;17.27;7.85;;;;;;;;;;5053183;28;20401;-68
2024/01/10 06:16:34;;;;;;;19.73;7.80;;;;;;;;;;5044823;28;20136;-67
2024/01/10 06:19:00;;;;;;;15.43;7.15;;;;;;;;;;5043667;28;20045;-68
2024/01/10 06:21:26;;;;;;;13.85;7.18;;;;;;;;;;5046927;28;20041;-68
2024/01/10 06:23:53;;;;;;;16.02;7.32;;;;;;;;;;5050717;28;20056;-68
2024/01/10 06:26:22;;;;;;;18.95;7.72;;;;;;;;;;5051608;28;20049;-68
2024/01/10 06:28:48;;;;;;;19.95;6.82;;;;;;;;;;5051940;28;20489;-68
2024/01/10 06:31:14;;;;;;;16.40;7.63;;;;;;;;;;5049038;28;20050;-68
2024/01/10 06:33:41;;;;;;;10.80;6.90;;;;;;;;;;5041613;28;20542;-67
2024/01/10 06:36:08;;;;;;;17.80;9.73;;;;;;;;;;5040594;28;20050;-68
2024/01/10 06:38:34;;;;;;;15.80;8.52;;;;;;;;;;5032776;28;20046;-68
2024/01/10 06:41:01;;;;;;;13.60;7.07;;;;;;;;;;5041872;28;20064;-67
2024/01/10 06:43:29;;;;;;;15.30;7.10;;;;;;;;;;5039403;28;20068;-67
2024/01/10 06:45:56;;;;;;;17.08;6.95;;;;;;;;;;5044141;28;20049;-68
2024/01/10 06:48:22;;;;;;;15.63;7.65;;;;;;;;;;5051758;28;20040;-68
2024/01/10 06:50:48;;;;;;;18.90;8.60;;;;;;;;;;5051968;28;20478;-68
2024/01/10 06:53:15;;;;;;;20.75;7.88;;;;;;;;;;5037509;28;20041;-68
2024/01/10 06:55:41;;;;;;;21.33;9.95;;;;;;;;;;5052382;28;20543;-68
2024/01/10 06:58:07;;;;;;;20.30;8.70;;;;;;;;;;5036105;28;20524;-68
2024/01/10 07:00:34;;;;;;;18.88;7.03;;;;;;;;;;5052084;28;20057;-68
2024/01/10 07:03:02;;;;;;;16.52;7.15;;;;;;;;;;5049472;28;20047;-68
2024/01/10 07:05:28;;;;;;;19.08;7.45;;;;;;;;;;5038736;28;20049;-67
2024/01/10 07:07:55;;;;;;;16.33;7.93;;;;;;;;;;5051036;28;20053;-68
2024/01/10 07:10:24;;;;;;;14.32;7.82;;;;;;;;;;5044409;28;20044;-68
2024/01/10 07:12:50;;;;;;;16.80;7.18;;;;;;;;;;5043907;28;20094;-68
2024/01/10 07:15:17;;;;;;;17.85;7.43;;;;;;;;;;5043794;28;20041;-68
2024/01/10 07:17:45;;;;;;;16.17;8.05;;;;;;;;;;5051659;28;20060;-68
2024/01/10 07:20:12;;;;;;;18.65;8.38;;;;;;;;;;5044022;28;20051;-67
2024/01/10 07:22:39;;;;;;;17.67;7.53;;;;;;;;;;5051800;28;20049;-68
2024/01/10 07:25:06;;;;;;;17.85;7.78;;;;;;;;;;5051480;28;20480;-68
2024/01/10 07:27:32;;;;;;;15.48;7.22;;;;;;;;;;5051213;28;20102;-67
2024/01/10 07:29:59;;;;;;;18.95;8.68;;;;;;;;;;5042472;28;20041;-68
2024/01/10 07:32:25;;;;;;;17.60;7.03;;;;;;;;;;5051157;28;20053;-68
2024/01/10 07:34:53;;;;;;;18.30;8.20;;;;;;;;;;5043173;28;20079;-67
2024/01/10 07:37:20;;;;;;;17.92;9.00;;;;;;;;;;5051006;28;20048;-67
2024/01/10 07:39:47;;;;;;;19.48;8.32;;;;;;;;;;5047115;28;20044;-67
2024/01/10 07:42:13;;;;;;;17.48;8.40;;;;;;;;;;5051592;28;20049;-67
2024/01/10 07:44:40;;;;;;;19.10;8.18;;;;;;;;;;5051284;28;20052;-67
2024/01/10 07:47:07;;;;;;;19.35;7.43;;;;;;;;;;5041984;28;20056;-67
2024/01/10 07:49:33;;;;;;;16.85;9.15;;;;;;;;;;5043101;28;20048;-67
2024/01/10 07:52:01;;;;;;;16.98;8.27;;;;;;;;;;5050395;28;20056;-68
2024/01/10 07:54:28;;;;;;;14.20;7.13;;;;;;;;;;5051369;28;20045;-67
2024/01/10 07:56:54;;;;;;;19.52;8.25;;;;;;;;;;5040514;28;20041;-67
2024/01/10 07:59:21;;;;;;;15.90;7.95;;;;;;;;;;5043894;28;20123;-67
2024/01/10 08:01:55;;;;;;;18.80;7.53;;;;;;;;;;5041810;28;20137;-67
2024/01/10 08:04:22;;;;;;;17.38;8.63;;;;;;;;;;5037977;28;20448;-67
2024/01/10 08:06:49;;;;;;;22.40;7.60;;;;;;;;;;5041400;28;20060;-67
2024/01/10 08:09:18;;;;;;;18.20;8.25;;;;;;;;;;5050375;28;20053;-68
2024/01/10 08:11:45;;;;;;;14.02;7.95;;;;;;;;;;5040927;28;20080;-67
2024/01/10 08:14:11;;;;;;;15.57;7.93;;;;;;;;;;5049834;28;20045;-67
2024/01/10 08:16:38;;;;;;;20.77;7.50;;;;;;;;;;5047218;28;20045;-67
2024/01/10 08:19:04;;;;;;;18.10;7.13;;;;;;;;;;5041542;28;20044;-67
2024/01/10 08:21:30;;;;;;;17.55;8.45;;;;;;;;;;5049636;28;20045;-67
2024/01/10 08:23:57;;;;;;;16.50;8.63;;;;;;;;;;5031008;28;20059;-67
2024/01/10 08:26:25;;;;;;;18.65;8.27;;;;;;;;;;5032959;28;20103;-67
2024/01/10 08:28:51;;;;;;;17.08;8.13;;;;;;;;;;5039288;28;20496;-68
2024/01/10 08:31:18;;;;;;;16.88;8.25;;;;;;;;;;5034243;28;20067;-67
2024/01/10 08:33:44;;;;;;;13.18;7.05;;;;;;;;;;5047955;28;20051;-67
2024/01/10 08:36:12;;;;;;;16.17;8.10;;;;;;;;;;5028884;28;20053;-67
2024/01/10 08:38:38;;;;;;;16.98;8.63;;;;;;;;;;5044016;28;20393;-67
2024/01/10 08:41:05;;;;;;;19.80;9.38;;;;;;;;;;5046100;28;20068;-67
2024/01/10 08:43:33;;;;;;;21.15;9.07;;;;;;;;;;5039946;28;20081;-67
2024/01/10 08:45:59;;;;;;;19.73;8.05;;;;;;;;;;5046759;28;20049;-67
2024/01/10 08:48:25;;;;;;;20.92;9.85;;;;;;;;;;5042307;28;20046;-67
2024/01/10 08:50:55;;;;;;;22.80;9.77;;;;;;;;;;5038307;28;20076;-67
2024/01/10 08:53:22;;;;;;;20.15;8.52;;;;;;;;;;5043288;28;20052;-67
2024/01/10 08:55:48;;;;;;;24.67;9.20;;;;;;;;;;5036762;28;20045;-67
2024/01/10 08:58:15;;;;;;;20.52;8.40;;;;;;;;;;5040755;28;20051;-68
2024/01/10 09:00:43;;;;;;;16.80;8.55;;;;;;;;;;5033248;28;20048;-67
2024/01/10 09:03:09;;;;;;;18.38;9.00;;;;;;;;;;5044232;28;20047;-68
2024/01/10 09:05:36;;;;;;;16.15;9.25;;;;;;;;;;5048552;28;20420;-67
2024/01/10 09:08:02;;;;;;;21.35;9.70;;;;;;;;;;5047363;28;20053;-67
2024/01/10 09:10:29;;;;;;;22.48;9.15;;;;;;;;;;5049442;28;20053;-67
2024/01/10 09:12:55;;;;;;;21.73;8.85;;;;;;;;;;5047496;28;20052;-68
2024/01/10 09:15:22;;;;;;;16.40;8.85;;;;;;;;;;5042207;28;20489;-67
2024/01/10 09:17:50;;;;;;;21.65;9.52;;;;;;;;;;5040217;28;20049;-67
2024/01/10 09:20:16;;;;;;;19.98;9.15;;;;;;;;;;5036432;28;20049;-67
2024/01/10 09:22:43;;;;;;;18.83;9.40;;;;;;;;;;5047685;28;20128;-67
2024/01/10 09:25:11;;;;;;;22.17;10.13;;;;;;;;;;5039492;28;20132;-67
2024/01/10 09:27:40;;;;;;;22.00;9.43;;;;;;;;;;5047977;28;20095;-67
2024/01/10 09:30:08;;;;;;;19.55;9.25;;;;;;;;;;5031137;28;20581;-67
2024/01/10 09:32:35;;;;;;;20.70;9.48;;;;;;;;;;5049009;28;20497;-67
2024/01/10 09:35:03;;;;;;;20.50;8.60;;;;;;;;;;5048005;28;20412;-68
2024/01/10 09:37:30;;;;;;;23.02;9.27;;;;;;;;;;5049085;28;20052;-67
2024/01/10 09:39:56;;;;;;;24.45;9.30;;;;;;;;;;5049513;28;20045;-67
2024/01/10 09:42:25;;;;;;;20.27;8.75;;;;;;;;;;5049984;28;20049;-67
2024/01/10 09:44:52;;;;;;;23.70;9.30;;;;;;;;;;5040011;28;20096;-67
2024/01/10 09:47:20;;;;;;;18.42;8.93;;;;;;;;;;5048874;28;20417;-68
2024/01/10 09:49:47;;;;;;;19.67;9.25;;;;;;;;;;5034393;28;20069;-68
2024/01/10 09:52:17;;;;;;;15.45;7.57;;;;;;;;;;5037689;28;20045;-67
2024/01/10 09:54:46;;;;;;;17.42;8.20;;;;;;;;;;5039848;28;20050;-67
2024/01/10 09:57:13;;;;;;;17.08;6.93;;;;;;;;;;5043647;28;20045;-68
2024/01/10 09:59:39;;;;;;;19.00;7.88;;;;;;;;;;5051274;28;20041;-67
2024/01/10 10:02:06;;;;;;;15.65;7.43;;;;;;;;;;5051215;28;20049;-67
2024/01/10 10:04:32;;;;;;;17.83;7.30;;;;;;;;;;5045535;28;20059;-68
2024/01/10 10:06:59;;;;;;;16.33;7.47;;;;;;;;;;5038904;28;20049;-67
2024/01/10 10:09:27;;;;;;;18.60;8.55;;;;;;;;;;5046493;28;20286;-67
2024/01/10 10:11:54;;;;;;;17.38;8.10;;;;;;;;;;5041800;28;20045;-68
2024/01/10 10:14:20;;;;;;;16.48;8.85;;;;;;;;;;5052060;28;20049;-67
2024/01/10 10:16:47;;;;;;;16.38;8.18;;;;;;;;;;5047728;28;20092;-67
2024/01/10 10:19:13;;;;;;;23.70;8.25;;;;;;;;;;5047898;28;20048;-68
2024/01/10 10:21:40;;;;;;;19.75;7.93;;;;;;;;;;5052375;28;20049;-67
2024/01/10 10:24:07;;;;;;;17.83;7.85;;;;;;;;;;5049157;28;20051;-67
2024/01/10 10:26:35;;;;;;;19.15;8.00;;;;;;;;;;5049014;28;20514;-67
2024/01/10 10:29:01;;;;;;;17.60;7.80;;;;;;;;;;5042059;28;20072;-67
2024/01/10 10:31:29;;;;;;;15.27;7.20;;;;;;;;;;5043139;28;20049;-67
2024/01/10 10:33:55;;;;;;;18.05;7.45;;;;;;;;;;5041473;28;20052;-68
2024/01/10 10:36:21;;;;;;;13.35;6.68;;;;;;;;;;5043196;28;20533;-68
2024/01/10 10:38:49;;;;;;;15.93;7.03;;;;;;;;;;5048849;28;20174;-67
2024/01/10 10:41:15;;;;;;;16.33;7.40;;;;;;;;;;5047720;28;20052;-67
2024/01/10 10:43:43;;;;;;;15.35;7.35;;;;;;;;;;5047836;28;20057;-68
2024/01/10 10:46:12;;;;;;;13.57;7.10;;;;;;;;;;5039761;28;20420;-67
2024/01/10 10:48:38;;;;;;;15.70;7.30;;;;;;;;;;5039299;28;20244;-67
2024/01/10 10:51:07;;;;;;;18.33;7.47;;;;;;;;;;5051283;28;20152;-68
2024/01/10 10:53:34;;;;;;;15.02;6.72;;;;;;;;;;5050663;28;20053;-68
2024/01/10 10:56:01;;;;;;;15.32;7.10;;;;;;;;;;5047680;28;20051;-68
2024/01/10 10:58:28;;;;;;;16.67;7.00;;;;;;;;;;5049897;28;20045;-68
2024/01/10 11:00:56;;;;;;;15.25;7.28;;;;;;;;;;5048039;28;20045;-68
2024/01/10 11:03:24;;;;;;;18.30;8.13;;;;;;;;;;5037492;28;20427;-68
2024/01/10 11:05:51;;;;;;;17.70;8.05;;;;;;;;;;5050174;28;20047;-68
2024/01/10 11:08:18;;;;;;;14.30;6.65;;;;;;;;;;5050409;28;20041;-68
2024/01/10 11:10:45;;;;;;;17.23;6.88;;;;;;;;;;5051480;28;20048;-68
2024/01/10 11:13:22;;;;;;;15.45;7.45;;;;;;;;;;5042817;28;20056;-68
2024/01/10 11:15:59;;;;;;;15.35;7.65;;;;;;;;;;5049191;28;20045;-67
2024/01/10 11:18:34;;;;;;;15.45;7.00;;;;;;;;;;5037345;28;20052;-68
2024/01/10 11:21:08;;;;;;;16.08;6.90;;;;;;;;;;5050570;28;20055;-68
2024/01/10 11:23:44;;;;;;;16.20;7.30;;;;;;;;;;5043874;28;20046;-68
2024/01/10 11:26:13;;;;;;;16.13;7.28;;;;;;;;;;5042399;28;20051;-68
2024/01/10 11:28:39;;;;;;;17.60;8.07;;;;;;;;;;5050822;28;20056;-68
2024/01/10 11:31:06;;;;;;;20.85;8.52;;;;;;;;;;5040765;28;20059;-68
2024/01/10 11:33:36;;;;;;;19.30;7.75;;;;;;;;;;5038527;28;20053;-68
2024/01/10 11:36:24;;;;;;;18.02;8.27;;;;;;;;;;5050229;28;20056;-68
2024/01/10 11:38:59;;;;;;;15.57;7.07;;;;;;;;;;5046435;28;20106;-68
2024/01/10 11:41:26;;;;;;;15.38;7.00;;;;;;;;;;5051547;28;20519;-68
2024/01/10 11:44:25;;;;;;;15.65;7.32;;;;;;;;;;5050528;28;20045;-68
2024/01/10 11:46:54;;;;;;;17.42;7.15;;;;;;;;;;4988589;28;20060;-67
2024/01/10 11:49:22;;;;;;;18.13;7.88;;;;;;;;;;4989379;28;20046;-69
2024/01/10 11:51:49;;;;;;;15.63;6.63;;;;;;;;;;5008380;28;20394;-69
2024/01/10 11:54:30;;;;;;;16.60;7.63;;;;;;;;;;5043573;28;20049;-69
2024/01/10 11:56:57;;;;;;;17.75;7.32;;;;;;;;;;5049481;28;20493;-69
2024/01/10 11:59:24;;;;;;;18.35;7.32;;;;;;;;;;5050317;28;20083;-69
2024/01/10 12:01:51;;;;;;;16.08;7.28;;;;;;;;;;5050291;28;20132;-70
2024/01/10 12:04:19;;;;;;;15.65;7.53;;;;;;;;;;5050616;28;20079;-70
2024/01/10 12:06:47;;;;;;;17.30;7.20;;;;;;;;;;5041837;28;20049;-69
2024/01/10 12:09:13;;;;;;;18.58;7.28;;;;;;;;;;5038666;28;20060;-69
2024/01/10 12:11:40;;;;;;;20.30;7.53;;;;;;;;;;5046857;28;20053;-70
2024/01/10 12:14:07;;;;;;;16.83;7.75;;;;;;;;;;5033913;28;20057;-70
2024/01/10 12:16:33;;;;;;;16.75;7.55;;;;;;;;;;5041292;28;20488;-69
2024/01/10 12:18:59;;;;;;;15.20;6.82;;;;;;;;;;5046915;28;20057;-69
2024/01/10 12:21:26;;;;;;;14.68;7.35;;;;;;;;;;5035750;28;20399;-69
2024/01/10 12:23:54;;;;;;;15.90;7.43;;;;;;;;;;5047147;28;20556;-69
2024/01/10 12:26:20;;;;;;;17.88;7.32;;;;;;;;;;5049538;28;20051;-70
2024/01/10 12:28:54;;;;;;;14.15;6.80;;;;;;;;;;5049844;28;20440;-69
2024/01/10 12:31:22;;;;;;;14.73;7.03;;;;;;;;;;5042133;28;20042;-67
2024/01/10 12:33:49;;;;;;;15.27;6.38;;;;;;;;;;5049208;28;20087;-67
2024/01/10 12:36:17;;;;;;;17.33;8.45;;;;;;;;;;5041396;28;20124;-67
2024/01/10 12:38:44;;;;;;;17.00;7.95;;;;;;;;;;5042302;28;20045;-67
2024/01/10 12:41:12;;;;;;;19.33;7.72;;;;;;;;;;5039211;28;20049;-67
2024/01/10 12:43:38;;;;;;;18.00;7.72;;;;;;;;;;5038620;28;20045;-67
2024/01/10 12:46:10;;;;;;;15.57;7.25;;;;;;;;;;5041797;28;20053;-67
2024/01/10 12:48:37;;;;;;;19.45;7.35;;;;;;;;;;5049393;28;20053;-67
2024/01/10 12:51:06;;;;;;;19.02;8.55;;;;;;;;;;5043287;28;20412;-67
2024/01/10 12:53:34;;;;;;;17.00;7.32;;;;;;;;;;5043374;28;20505;-67
2024/01/10 12:56:00;;;;;;;15.32;7.05;;;;;;;;;;5033749;28;20045;-67
2024/01/10 12:58:28;;;;;;;18.30;8.15;;;;;;;;;;5049194;28;20520;-67
2024/01/10 13:00:55;;;;;;;17.17;7.57;;;;;;;;;;5042472;28;20480;-67
2024/01/10 13:03:21;;;;;;;16.10;7.40;;;;;;;;;;5050123;28;20048;-67
2024/01/10 13:05:48;;;;;;;14.57;6.88;;;;;;;;;;5042319;28;20044;-67
2024/01/10 13:08:14;;;;;;;15.57;7.57;;;;;;;;;;5045369;28;20140;-67
2024/01/10 13:10:41;;;;;;;15.82;7.13;;;;;;;;;;5030703;28;20398;-67
2024/01/10 13:13:07;;;;;;;12.25;7.22;;;;;;;;;;5049851;28;20527;-68
2024/01/10 13:15:35;;;;;;;15.23;7.47;;;;;;;;;;5049571;28;20055;-67
2024/01/10 13:18:02;;;;;;;19.60;7.55;;;;;;;;;;5036951;28;20050;-67
2024/01/10 13:20:28;;;;;;;17.80;7.30;;;;;;;;;;5046285;28;20049;-67
2024/01/10 13:22:55;;;;;;;19.27;7.47;;;;;;;;;;5047954;28;20056;-67
2024/01/10 13:25:22;;;;;;;14.88;7.72;;;;;;;;;;5042906;28;20045;-67
2024/01/10 13:27:49;;;;;;;15.20;6.70;;;;;;;;;;5051448;28;20059;-67
2024/01/10 13:30:16;;;;;;;16.75;7.50;;;;;;;;;;5045352;28;20398;-67
2024/01/10 13:32:43;;;;;;;16.30;7.72;;;;;;;;;;5051700;28;20057;-67
2024/01/10 13:35:10;;;;;;;14.32;7.03;;;;;;;;;;5051188;28;20488;-67
2024/01/10 13:37:36;;;;;;;15.57;7.40;;;;;;;;;;5045051;28;20095;-67
2024/01/10 13:40:05;;;;;;;19.83;7.88;;;;;;;;;;5050471;28;20365;-67
2024/01/10 13:42:32;;;;;;;14.95;7.22;;;;;;;;;;5052469;28;20049;-67
2024/01/10 13:44:59;;;;;;;13.68;6.90;;;;;;;;;;5052009;28;20074;-67
2024/01/10 13:47:25;;;;;;;16.75;7.65;;;;;;;;;;5046013;28;20046;-67
2024/01/10 13:49:53;;;;;;;13.70;6.68;;;;;;;;;;5041839;28;20049;-67
2024/01/10 13:52:19;;;;;;;14.20;6.90;;;;;;;;;;5047893;28;20049;-67
2024/01/10 13:54:45;;;;;;;17.85;7.60;;;;;;;;;;5048995;28;20063;-67
2024/01/10 13:57:12;;;;;;;16.27;7.00;;;;;;;;;;5051218;28;20048;-67
2024/01/10 13:59:38;;;;;;;15.02;6.25;;;;;;;;;;5045241;28;20045;-67
2024/01/10 14:02:06;;;;;;;16.02;7.28;;;;;;;;;;5049405;28;20064;-67
2024/01/10 14:04:33;;;;;;;13.25;6.80;;;;;;;;;;5041243;28;20060;-67
2024/01/10 14:07:01;;;;;;;15.05;7.53;;;;;;;;;;5042185;28;20063;-70
2024/01/10 14:09:27;;;;;;;15.43;6.95;;;;;;;;;;5039344;28;20667;-69
2024/01/10 14:11:53;;;;;;;17.02;7.47;;;;;;;;;;5042860;28;20045;-69
2024/01/10 14:14:20;;;;;;;14.23;6.90;;;;;;;;;;5048134;28;20049;-69
2024/01/10 14:16:46;;;;;;;17.63;6.85;;;;;;;;;;5039949;28;20050;-68
2024/01/10 14:19:13;;;;;;;14.18;6.85;;;;;;;;;;5037894;28;20048;-68
2024/01/10 14:21:39;;;;;;;17.90;7.90;;;;;;;;;;5045607;28;20298;-68
2024/01/10 14:24:07;;;;;;;22.02;10.77;;;;;;;;;;5044291;28;20102;-69
2024/01/10 14:26:33;;;;;;;17.63;8.07;;;;;;;;;;5051884;28;20417;-69
2024/01/10 14:29:00;;;;;;;15.05;7.72;;;;;;;;;;5052124;28;20080;-69
2024/01/10 14:31:26;;;;;;;16.65;8.38;;;;;;;;;;5053308;28;20409;-69
2024/01/10 14:33:53;;;;;;;14.30;7.00;;;;;;;;;;5044295;28;20460;-68